createdAt,value
2022-12-07T00:00:49.442Z,20.47
2022-12-07T00:03:16.897Z,18.37
2022-12-07T00:05:45.645Z,18.77
2022-12-07T00:08:13.063Z,19.03
2022-12-07T00:10:40.462Z,18.43
2022-12-07T00:13:07.855Z,18.13
2022-12-07T00:15:35.792Z,16.13
2022-12-07T00:18:04.260Z,17.00
2022-12-07T00:20:32.165Z,18.37
2022-12-07T00:23:00.996Z,16.00
2022-12-07T00:25:28.479Z,18.97
2022-12-07T00:27:57.142Z,17.10
2022-12-07T00:30:24.775Z,17.47
2022-12-07T00:32:52.335Z,19.83
2022-12-07T00:35:19.928Z,18.80
2022-12-07T00:37:47.332Z,18.37
2022-12-07T00:40:16.197Z,17.43
2022-12-07T00:42:43.604Z,16.60
2022-12-07T00:45:11.166Z,19.00
2022-12-07T00:47:38.623Z,17.47
2022-12-07T00:50:06.672Z,16.50
2022-12-07T00:52:34.071Z,19.27
2022-12-07T00:55:01.553Z,18.10
2022-12-07T00:57:32.081Z,18.20
2022-12-07T01:00:01.587Z,17.33
2022-12-07T01:02:29.163Z,17.27
2022-12-07T01:04:56.581Z,17.43
2022-12-07T01:07:24.009Z,17.37
2022-12-07T01:09:51.448Z,16.83
2022-12-07T01:12:18.854Z,17.27
2022-12-07T01:14:47.683Z,21.27
2022-12-07T01:17:15.162Z,15.37
2022-12-07T01:19:42.601Z,16.10
2022-12-07T01:22:10.052Z,20.17
2022-12-07T01:24:37.488Z,22.87
2022-12-07T01:27:04.892Z,20.03
2022-12-07T01:29:32.332Z,22.40
2022-12-07T01:32:01.070Z,20.40
2022-12-07T01:34:28.482Z,18.73
2022-12-07T01:36:55.908Z,18.77
2022-12-07T01:39:23.501Z,19.23
2022-12-07T01:41:50.987Z,19.17
2022-12-07T01:44:20.688Z,19.53
2022-12-07T01:46:49.011Z,22.63
2022-12-07T01:49:30.171Z,19.83
2022-12-07T01:52:00.138Z,20.20
2022-12-07T01:54:27.815Z,22.00
2022-12-07T01:56:56.748Z,23.77
2022-12-07T01:59:26.638Z,21.17
2022-12-07T02:01:55.019Z,21.80
2022-12-07T02:04:23.286Z,21.23
2022-12-07T02:06:52.444Z,20.53
2022-12-07T02:09:19.906Z,16.97
2022-12-07T02:11:47.380Z,17.33
2022-12-07T02:14:14.835Z,18.90
2022-12-07T02:16:46.437Z,18.57
2022-12-07T02:19:27.956Z,20.83
2022-12-07T02:22:02.409Z,22.07
2022-12-07T02:24:38.659Z,18.70
2022-12-07T02:27:13.050Z,22.13
2022-12-07T02:29:45.142Z,22.73
2022-12-07T02:32:15.954Z,19.93
2022-12-07T02:34:46.151Z,19.60
2022-12-07T02:37:20.766Z,19.83
2022-12-07T02:39:50.021Z,20.70
2022-12-07T02:42:19.500Z,21.50
2022-12-07T02:44:48.682Z,21.57
2022-12-07T02:47:17.817Z,24.90
2022-12-07T02:49:45.359Z,21.27
2022-12-07T02:52:12.825Z,19.93
2022-12-07T02:54:40.512Z,19.63
2022-12-07T02:57:19.346Z,19.07
2022-12-07T02:59:51.629Z,19.90
2022-12-07T03:02:23.566Z,21.00
2022-12-07T03:04:54.652Z,24.13
2022-12-07T03:07:26.632Z,18.07
2022-12-07T03:09:58.503Z,19.03
2022-12-07T03:12:30.505Z,19.70
2022-12-07T03:15:02.301Z,20.17
2022-12-07T03:17:32.165Z,19.50
2022-12-07T03:20:02.234Z,19.40
2022-12-07T03:22:31.506Z,20.23
2022-12-07T03:25:00.724Z,22.97
2022-12-07T03:27:31.074Z,23.57
2022-12-07T03:30:02.049Z,21.13
2022-12-07T03:32:32.997Z,21.37
2022-12-07T03:35:03.727Z,22.13
2022-12-07T03:37:34.148Z,22.40
2022-12-07T03:40:05.774Z,22.10
2022-12-07T03:42:34.873Z,23.90
2022-12-07T03:45:04.015Z,20.70
2022-12-07T03:47:33.595Z,22.00
2022-12-07T03:50:03.337Z,21.30
2022-12-07T03:52:34.595Z,24.60
2022-12-07T03:55:04.466Z,23.03
2022-12-07T03:57:33.234Z,20.77
2022-12-07T04:00:01.609Z,21.13
2022-12-07T04:02:30.918Z,20.67
2022-12-07T04:04:58.695Z,20.50
2022-12-07T04:07:26.143Z,21.87
2022-12-07T04:09:55.726Z,24.57
2022-12-07T04:12:23.256Z,21.30
2022-12-07T04:14:50.695Z,21.00
2022-12-07T04:17:18.462Z,24.07
2022-12-07T04:19:47.229Z,23.33
2022-12-07T04:22:14.623Z,23.60
2022-12-07T04:24:43.103Z,27.43
2022-12-07T04:27:11.574Z,25.40
2022-12-07T04:29:39.016Z,24.83
2022-12-07T04:32:06.603Z,25.73
2022-12-07T04:34:34.170Z,25.70
2022-12-07T04:37:02.928Z,22.70
2022-12-07T04:39:31.060Z,21.67
2022-12-07T04:41:58.837Z,21.43
2022-12-07T04:44:27.005Z,24.50
2022-12-07T04:46:55.223Z,19.80
2022-12-07T04:49:22.981Z,24.27
2022-12-07T04:51:50.424Z,19.73
2022-12-07T04:54:19.412Z,20.03
2022-12-07T04:56:46.964Z,21.53
2022-12-07T04:59:15.066Z,18.33
2022-12-07T05:01:42.554Z,15.73
2022-12-07T05:04:10.590Z,12.47
2022-12-07T05:06:38.008Z,18.87
2022-12-07T05:09:05.699Z,21.70
2022-12-07T05:11:40.435Z,17.30
2022-12-07T05:14:08.828Z,18.23
2022-12-07T05:16:36.371Z,22.20
2022-12-07T05:19:04.410Z,20.23
2022-12-07T05:21:31.956Z,23.30
2022-12-07T05:23:59.375Z,25.60
2022-12-07T05:26:27.075Z,27.17
2022-12-07T05:28:56.705Z,26.63
2022-12-07T05:31:26.105Z,26.00
2022-12-07T05:33:53.696Z,20.97
2022-12-07T05:36:21.431Z,26.83
2022-12-07T05:38:48.917Z,28.20
2022-12-07T05:41:31.362Z,28.97
2022-12-07T05:44:00.086Z,23.00
2022-12-07T05:46:27.616Z,24.83
2022-12-07T05:48:55.070Z,25.93
2022-12-07T05:51:23.551Z,25.87
2022-12-07T05:53:50.986Z,28.30
2022-12-07T05:56:18.398Z,25.03
2022-12-07T05:59:03.291Z,27.13
2022-12-07T06:01:32.072Z,29.20
2022-12-07T06:03:59.475Z,23.60
2022-12-07T06:06:27.148Z,24.63
2022-12-07T06:08:54.601Z,28.97
2022-12-07T06:11:39.715Z,23.83
2022-12-07T06:14:07.159Z,22.77
2022-12-07T06:16:35.966Z,25.00
2022-12-07T06:19:03.409Z,25.93
2022-12-07T06:21:30.908Z,21.53
2022-12-07T06:23:58.322Z,22.00
2022-12-07T06:26:25.987Z,23.33
2022-12-07T06:28:53.535Z,22.53
2022-12-07T06:31:21.245Z,24.80
2022-12-07T06:33:50.047Z,22.07
2022-12-07T06:36:19.439Z,20.83
2022-12-07T06:38:50.099Z,24.77
2022-12-07T06:41:17.542Z,22.43
2022-12-07T06:43:45.067Z,24.17
2022-12-07T06:46:12.517Z,21.97
2022-12-07T06:48:39.974Z,18.63
2022-12-07T06:51:08.730Z,21.53
2022-12-07T06:53:36.406Z,21.93
2022-12-07T06:56:03.868Z,23.80
2022-12-07T06:58:31.660Z,20.90
2022-12-07T07:00:59.236Z,22.07
2022-12-07T07:03:26.837Z,20.73
2022-12-07T07:05:54.299Z,19.63
2022-12-07T07:08:23.719Z,16.97
2022-12-07T07:10:51.641Z,15.13
2022-12-07T07:13:19.040Z,15.80
2022-12-07T07:15:46.724Z,19.53
2022-12-07T07:18:14.131Z,18.70
2022-12-07T07:20:41.915Z,16.57
2022-12-07T07:23:09.433Z,15.77
2022-12-07T07:25:38.171Z,18.67
2022-12-07T07:28:05.823Z,21.27
2022-12-07T07:30:33.535Z,17.87
2022-12-07T07:33:01.161Z,17.23
2022-12-07T07:35:28.562Z,17.27
2022-12-07T07:37:56.061Z,19.80
2022-12-07T07:40:23.798Z,19.47
2022-12-07T07:42:53.298Z,21.17
2022-12-07T07:45:21.161Z,22.67
2022-12-07T07:47:48.945Z,25.17
2022-12-07T07:50:16.983Z,22.70
2022-12-07T07:52:44.409Z,18.67
2022-12-07T07:55:11.801Z,25.17
2022-12-07T07:57:39.934Z,23.87
2022-12-07T08:00:10.661Z,20.33
2022-12-07T08:02:38.073Z,19.23
2022-12-07T08:05:06.040Z,17.30
2022-12-07T08:07:33.510Z,16.57
2022-12-07T08:10:01.308Z,21.33
2022-12-07T08:12:29.045Z,16.67
2022-12-07T08:14:56.443Z,16.60
2022-12-07T08:17:25.208Z,14.83
2022-12-07T08:19:53.799Z,17.07
2022-12-07T08:22:21.227Z,16.43
2022-12-07T08:24:48.644Z,13.30
2022-12-07T08:27:16.030Z,14.53
2022-12-07T08:29:43.424Z,16.77
2022-12-07T08:32:10.839Z,14.80
2022-12-07T08:34:39.590Z,15.17
2022-12-07T08:37:06.979Z,15.30
2022-12-07T08:39:34.373Z,15.50
2022-12-07T08:42:01.787Z,15.00
2022-12-07T08:44:29.199Z,10.70
2022-12-07T08:47:00.724Z,11.30
2022-12-07T08:49:29.790Z,11.83
2022-12-07T08:51:58.554Z,19.43
2022-12-07T08:54:26.128Z,10.30
2022-12-07T08:56:58.752Z,11.97
2022-12-07T08:59:27.525Z,13.10
2022-12-07T09:01:55.121Z,15.03
2022-12-07T09:04:22.585Z,11.87
2022-12-07T09:06:50.172Z,9.87
2022-12-07T09:09:19.007Z,15.47
2022-12-07T09:11:46.827Z,13.60
2022-12-07T09:14:14.344Z,10.97
2022-12-07T09:16:42.132Z,16.03
2022-12-07T09:19:09.754Z,13.10
2022-12-07T09:21:37.189Z,13.73
2022-12-07T09:24:04.788Z,19.80
2022-12-07T09:26:33.583Z,13.67
2022-12-07T09:29:00.990Z,14.17
2022-12-07T09:31:28.457Z,16.10
2022-12-07T09:33:56.648Z,14.37
2022-12-07T09:36:24.159Z,13.43
2022-12-07T09:38:51.568Z,12.33
2022-12-07T09:41:19.013Z,14.00
2022-12-07T09:43:48.014Z,12.67
2022-12-07T09:46:17.833Z,14.23
2022-12-07T09:48:45.827Z,11.70
2022-12-07T09:51:22.436Z,12.23
2022-12-07T09:53:51.533Z,11.43
2022-12-07T09:56:20.177Z,12.77
2022-12-07T09:58:49.350Z,11.43
2022-12-07T10:01:17.972Z,12.20
2022-12-07T10:03:49.380Z,11.40
2022-12-07T10:06:16.828Z,12.43
2022-12-07T10:08:44.689Z,10.97
2022-12-07T10:11:15.619Z,15.63
2022-12-07T10:13:44.630Z,9.50
2022-12-07T10:16:29.698Z,10.50
2022-12-07T10:18:57.519Z,10.10
2022-12-07T10:21:25.615Z,9.73
2022-12-07T10:24:02.967Z,8.87
2022-12-07T10:26:32.563Z,8.70
2022-12-07T10:29:01.488Z,7.77
2022-12-07T10:31:30.482Z,9.23
2022-12-07T10:33:58.544Z,7.30
2022-12-07T10:36:27.308Z,7.30
2022-12-07T10:38:55.414Z,8.53
2022-12-07T10:41:22.801Z,8.93
2022-12-07T10:43:51.432Z,8.23
2022-12-07T10:46:33.930Z,7.30
2022-12-07T10:49:11.931Z,8.00
2022-12-07T10:51:45.056Z,7.93
2022-12-07T10:54:15.970Z,7.87
2022-12-07T10:57:01.171Z,8.37
2022-12-07T10:59:40.122Z,7.40
2022-12-07T11:02:18.967Z,7.70
2022-12-07T11:04:56.007Z,8.30
2022-12-07T11:07:29.818Z,8.43
2022-12-07T11:10:10.113Z,10.10
2022-12-07T11:12:45.884Z,6.80
2022-12-07T11:15:17.707Z,9.90
2022-12-07T11:17:47.654Z,7.77
2022-12-07T11:20:25.809Z,5.57
2022-12-07T11:22:57.754Z,10.20
2022-12-07T11:25:31.920Z,5.67
2022-12-07T11:28:05.191Z,6.83
2022-12-07T11:30:36.928Z,10.33
2022-12-07T11:33:14.243Z,8.33
2022-12-07T11:35:48.044Z,5.73
2022-12-07T11:38:18.899Z,7.30
2022-12-07T11:40:50.498Z,6.67
2022-12-07T11:43:23.274Z,9.17
2022-12-07T11:45:55.823Z,8.07
2022-12-07T11:48:25.278Z,10.90
2022-12-07T11:50:55.383Z,5.67
2022-12-07T11:53:25.041Z,5.67
2022-12-07T11:55:54.721Z,6.63
2022-12-07T11:58:25.327Z,9.43
2022-12-07T12:00:53.778Z,8.23
2022-12-07T12:03:24.890Z,7.43
2022-12-07T12:05:53.723Z,8.50
2022-12-07T12:11:18.393Z,5.57
2022-12-07T12:16:53.949Z,6.80
2022-12-07T12:19:27.569Z,10.43
2022-12-07T12:21:58.701Z,7.63
2022-12-07T12:24:28.121Z,5.03
2022-12-07T12:26:58.772Z,6.17
2022-12-07T12:29:30.391Z,5.47
2022-12-07T12:32:09.576Z,3.23
2022-12-07T12:34:48.330Z,5.97
2022-12-07T12:37:36.493Z,6.20
2022-12-07T12:40:21.828Z,5.53
2022-12-07T12:42:52.182Z,8.20
2022-12-07T12:45:22.336Z,6.60
2022-12-07T12:47:58.743Z,6.93
2022-12-07T12:50:27.467Z,9.57
2022-12-07T12:53:00.120Z,9.37
2022-12-07T12:55:45.226Z,8.30
2022-12-07T12:58:32.747Z,5.93
2022-12-07T13:01:18.921Z,11.50
2022-12-07T13:03:54.092Z,7.67
2022-12-07T13:06:34.652Z,5.47
2022-12-07T13:09:02.345Z,6.23
2022-12-07T13:11:31.206Z,8.07
2022-12-07T13:14:13.649Z,10.17
2022-12-07T13:16:43.371Z,6.53
2022-12-07T13:19:29.362Z,8.40
2022-12-07T13:21:56.941Z,10.80
2022-12-07T13:24:24.344Z,8.97
2022-12-07T13:26:57.881Z,17.70
2022-12-07T13:29:25.311Z,6.07
2022-12-07T13:31:54.519Z,7.67
2022-12-07T13:34:31.038Z,15.27
2022-12-07T13:36:58.452Z,9.33
2022-12-07T13:39:26.670Z,8.13
2022-12-07T13:41:55.883Z,8.00
2022-12-07T13:44:23.656Z,7.83
2022-12-07T13:46:54.290Z,12.77
2022-12-07T13:49:24.456Z,7.53
2022-12-07T13:51:52.070Z,12.30
2022-12-07T13:54:19.950Z,7.77
2022-12-07T13:56:49.997Z,7.60
2022-12-07T13:59:19.159Z,8.83
2022-12-07T14:01:47.798Z,12.60
2022-12-07T14:04:18.940Z,9.87
2022-12-07T14:06:50.719Z,10.57
2022-12-07T14:09:23.298Z,8.30
2022-12-07T14:11:51.803Z,10.63
2022-12-07T14:14:20.771Z,10.47
2022-12-07T14:16:57.570Z,7.03
2022-12-07T14:19:48.306Z,15.77
2022-12-07T14:22:35.846Z,7.67
2022-12-07T14:25:16.702Z,8.93
2022-12-07T14:27:50.071Z,8.70
2022-12-07T14:30:19.184Z,9.73
2022-12-07T14:32:49.508Z,9.47
2022-12-07T14:35:18.063Z,7.50
2022-12-07T14:37:46.533Z,11.63
2022-12-07T14:40:16.381Z,8.77
2022-12-07T14:42:43.977Z,11.20
2022-12-07T14:45:15.199Z,6.10
2022-12-07T14:50:30.332Z,8.93
2022-12-07T14:55:49.413Z,6.40
2022-12-07T14:58:17.671Z,7.77
2022-12-07T15:00:45.424Z,9.87
2022-12-07T15:03:13.992Z,8.70
2022-12-07T15:05:41.869Z,11.03
2022-12-07T15:08:10.604Z,9.03
2022-12-07T15:10:39.688Z,10.17
2022-12-07T15:13:28.239Z,7.60
2022-12-07T15:15:56.197Z,14.40
2022-12-07T15:18:24.148Z,7.17
2022-12-07T15:20:52.416Z,8.77
2022-12-07T15:23:19.852Z,7.03
2022-12-07T15:25:48.291Z,7.40
2022-12-07T15:28:17.327Z,7.00
2022-12-07T15:30:45.376Z,7.33
2022-12-07T15:33:13.373Z,7.80
2022-12-07T15:35:41.091Z,9.67
2022-12-07T15:38:09.087Z,6.77
2022-12-07T15:40:36.867Z,7.57
2022-12-07T15:43:04.686Z,8.73
2022-12-07T15:45:32.446Z,9.20
2022-12-07T15:48:27.297Z,9.90
2022-12-07T15:50:47.468Z,12.03
2022-12-07T15:53:14.882Z,15.00
2022-12-07T15:55:42.365Z,11.17
2022-12-07T15:58:10.164Z,10.57
2022-12-07T16:00:38.937Z,13.10
2022-12-07T16:03:06.427Z,10.30
2022-12-07T16:05:34.379Z,11.90
2022-12-07T16:08:01.828Z,11.43
2022-12-07T16:10:29.303Z,9.20
2022-12-07T16:12:56.759Z,18.93
2022-12-07T16:15:25.404Z,10.90
2022-12-07T16:17:54.450Z,13.47
2022-12-07T16:20:21.981Z,12.87
2022-12-07T16:22:52.836Z,14.87
2022-12-07T16:25:20.249Z,18.30
2022-12-07T16:27:47.657Z,11.03
2022-12-07T16:30:17.072Z,12.43
2022-12-07T16:32:44.760Z,12.83
2022-12-07T16:35:14.066Z,22.20
2022-12-07T16:37:43.598Z,18.80
2022-12-07T16:40:11.722Z,11.77
2022-12-07T16:42:39.113Z,64.53
2022-12-07T16:45:07.130Z,29.17
2022-12-07T16:47:34.579Z,13.33
2022-12-07T16:50:01.982Z,11.67
2022-12-07T16:52:31.001Z,13.30
2022-12-07T16:54:58.422Z,10.70
2022-12-07T16:57:25.934Z,13.90
2022-12-07T16:59:53.590Z,11.80
2022-12-07T17:02:21.059Z,10.90
2022-12-07T17:04:48.537Z,11.90
2022-12-07T17:07:15.956Z,10.70
2022-12-07T17:09:45.908Z,11.93
2022-12-07T17:12:13.356Z,17.07
2022-12-07T17:15:12.820Z,13.97
2022-12-07T17:17:40.907Z,46.97
2022-12-07T17:20:08.913Z,17.40
2022-12-07T17:22:36.321Z,17.30
2022-12-07T17:25:05.779Z,48.90
2022-12-07T17:27:33.512Z,19.63
2022-12-07T17:30:01.056Z,19.23
2022-12-07T17:32:28.631Z,26.70
2022-12-07T17:34:56.112Z,15.90
2022-12-07T17:37:23.674Z,15.47
2022-12-07T17:39:51.135Z,22.27
2022-12-07T17:42:38.070Z,12.67
2022-12-07T17:45:06.702Z,15.47
2022-12-07T17:47:34.257Z,14.80
2022-12-07T17:50:06.695Z,17.57
2022-12-07T17:52:52.445Z,15.53
2022-12-07T17:55:20.016Z,15.80
2022-12-07T17:57:48.785Z,15.73
2022-12-07T18:00:17.062Z,19.13
2022-12-07T18:02:44.512Z,12.83
2022-12-07T18:05:12.301Z,18.33
2022-12-07T18:07:39.790Z,16.90
2022-12-07T18:10:09.169Z,14.23
2022-12-07T18:12:36.652Z,15.73
2022-12-07T18:15:06.150Z,16.17
2022-12-07T18:17:33.747Z,18.13
2022-12-07T18:20:02.229Z,15.13
2022-12-07T18:22:30.729Z,14.87
2022-12-07T18:24:58.156Z,14.47
2022-12-07T18:27:25.578Z,17.63
2022-12-07T18:29:54.210Z,18.77
2022-12-07T18:32:23.099Z,18.90
2022-12-07T18:34:50.538Z,17.67
2022-12-07T18:37:18.120Z,23.73
2022-12-07T18:39:45.564Z,26.23
2022-12-07T18:42:12.995Z,27.10
2022-12-07T18:44:40.371Z,19.63
2022-12-07T18:47:07.841Z,21.77
2022-12-07T18:49:36.606Z,25.23
2022-12-07T18:52:04.022Z,23.00
2022-12-07T18:54:31.484Z,17.47
2022-12-07T18:56:58.897Z,15.33
2022-12-07T18:59:43.932Z,17.60
2022-12-07T19:02:12.794Z,15.80
2022-12-07T19:04:41.583Z,19.17
2022-12-07T19:07:08.982Z,23.33
2022-12-07T19:09:36.607Z,19.73
2022-12-07T19:12:05.465Z,14.47
2022-12-07T19:14:34.091Z,14.67
2022-12-07T19:17:02.970Z,16.70
2022-12-07T19:19:31.812Z,17.60
2022-12-07T19:22:00.779Z,18.80
2022-12-07T19:24:28.536Z,14.87
2022-12-07T19:26:56.089Z,16.23
2022-12-07T19:29:23.583Z,15.33
2022-12-07T19:31:51.124Z,22.30
2022-12-07T19:34:18.820Z,22.97
2022-12-07T19:36:47.170Z,19.03
2022-12-07T19:39:16.226Z,18.40
2022-12-07T19:41:43.946Z,16.80
2022-12-07T19:44:12.448Z,15.33
2022-12-07T19:46:40.170Z,15.70
2022-12-07T19:49:07.714Z,16.27
2022-12-07T19:51:36.175Z,16.57
2022-12-07T19:54:03.667Z,20.37
2022-12-07T19:56:32.580Z,16.77
2022-12-07T19:59:00.708Z,15.93
2022-12-07T20:01:28.411Z,16.53
2022-12-07T20:03:55.947Z,16.90
2022-12-07T20:06:23.684Z,21.23
2022-12-07T20:08:51.160Z,18.97
2022-12-07T20:11:37.363Z,19.63
2022-12-07T20:14:08.024Z,21.03
2022-12-07T20:16:35.557Z,18.50
2022-12-07T20:19:03.126Z,18.80
2022-12-07T20:21:30.527Z,17.83
2022-12-07T20:24:00.390Z,17.90
2022-12-07T20:26:28.095Z,19.10
2022-12-07T20:28:55.548Z,18.60
2022-12-07T20:31:24.361Z,17.63
2022-12-07T20:33:51.886Z,15.37
2022-12-07T20:36:19.811Z,14.20
2022-12-07T20:38:47.245Z,15.43
2022-12-07T20:41:29.275Z,15.37
2022-12-07T20:43:56.719Z,17.33
2022-12-07T20:46:25.571Z,14.07
2022-12-07T20:48:53.348Z,16.07
2022-12-07T20:51:20.824Z,13.43
2022-12-07T20:53:48.596Z,22.93
2022-12-07T20:56:19.865Z,16.60
2022-12-07T20:58:47.325Z,16.07
2022-12-07T21:01:15.111Z,17.27
2022-12-07T21:03:44.552Z,13.27
2022-12-07T21:06:13.621Z,15.83
2022-12-07T21:08:44.499Z,12.87
2022-12-07T21:11:11.925Z,13.20
2022-12-07T21:13:39.519Z,15.87
2022-12-07T21:16:08.393Z,13.70
2022-12-07T21:18:38.269Z,13.37
2022-12-07T21:21:07.396Z,19.70
2022-12-07T21:23:34.924Z,13.97
2022-12-07T21:26:02.611Z,15.20
2022-12-07T21:28:31.360Z,11.87
2022-12-07T21:31:14.581Z,11.87
2022-12-07T21:33:43.824Z,18.13
2022-12-07T21:36:13.527Z,14.90
2022-12-07T21:38:40.970Z,11.27
2022-12-07T21:41:12.106Z,16.27
2022-12-07T21:43:39.916Z,17.97
2022-12-07T21:46:07.366Z,16.80
2022-12-07T21:48:34.849Z,12.87
2022-12-07T21:51:05.887Z,15.27
2022-12-07T21:53:34.828Z,14.83
2022-12-07T21:56:03.020Z,15.37
2022-12-07T21:58:30.488Z,13.40
2022-12-07T22:00:58.446Z,16.43
2022-12-07T22:03:25.903Z,14.77
2022-12-07T22:05:53.410Z,16.17
2022-12-07T22:08:20.897Z,14.07
2022-12-07T22:10:49.680Z,16.43
2022-12-07T22:13:17.118Z,13.73
2022-12-07T22:15:43.980Z,16.47
2022-12-07T22:18:11.402Z,18.67
2022-12-07T22:20:38.842Z,21.07
2022-12-07T22:23:06.266Z,18.63
2022-12-07T22:25:33.689Z,18.17
2022-12-07T22:28:02.466Z,14.97
2022-12-07T22:30:29.863Z,14.53
2022-12-07T22:32:57.296Z,15.03
2022-12-07T22:35:24.711Z,17.07
2022-12-07T22:37:52.144Z,15.17
2022-12-07T22:40:19.558Z,14.63
2022-12-07T22:42:46.981Z,14.13
2022-12-07T22:45:15.995Z,15.60
2022-12-07T22:47:43.426Z,15.07
2022-12-07T22:50:11.401Z,14.97
2022-12-07T22:52:38.803Z,15.67
2022-12-07T22:55:07.055Z,14.27
2022-12-07T22:57:34.722Z,15.43
2022-12-07T23:00:02.145Z,15.47
2022-12-07T23:02:31.053Z,14.70
2022-12-07T23:04:58.524Z,14.87
2022-12-07T23:07:25.927Z,13.90
2022-12-07T23:09:53.356Z,13.50
2022-12-07T23:12:38.535Z,17.03
2022-12-07T23:15:06.723Z,11.87
2022-12-07T23:17:38.457Z,13.40
2022-12-07T23:20:06.785Z,14.70
2022-12-07T23:22:34.158Z,12.30
2022-12-07T23:25:02.018Z,12.87
2022-12-07T23:27:29.571Z,14.53
2022-12-07T23:29:56.959Z,11.00
2022-12-07T23:32:24.364Z,15.23
2022-12-07T23:34:53.089Z,14.47
2022-12-07T23:37:20.480Z,11.83
2022-12-07T23:39:47.907Z,12.43
2022-12-07T23:42:15.305Z,14.40
2022-12-07T23:44:42.741Z,14.93
2022-12-07T23:47:10.180Z,11.57
2022-12-07T23:49:37.746Z,13.80
2022-12-07T23:52:07.063Z,12.73
2022-12-07T23:54:34.539Z,17.77
2022-12-07T23:57:01.972Z,13.50
2022-12-07T23:59:29.402Z,15.73
